Tropical Cyclones
[Index]
Main Index Home Page Stock Weather Photos Extreme Storms Discussion Storm News and Storm Chasing Reports Tropical Cyclones / Hurricanes / Typhoons Weather Data and Links Wild Fires / Bushfires Weather Observation Techniques Weather Picture Catalogue Tornado Pictures and Reports Stock Video Footage and DVDs for sale
Season 2019-2020 Tropical Cyclone 202012 Track Map
Season 2019-2020 Summaries (Operational Data): [AU] [SIO] [SPAC] [SH]
<<- Previous TC | 2019-2020 Season | Next TC ->>

click for intensity scale information  Lat/long Grid: Show Hide

 Date Labels: Show Hide

Operational Tropical Cyclone Data

Name: 202012
Number: 2012

20 Jan 2020 12:00 UTC to 28 Jan 2020 18:00 UTC

    date/time    lat    long     hPa   cat  kts
2020-01-20 12   12.0   179.3W   1006         15          
2020-01-20 18   13.8   178.0W   1006         15          
2020-01-21 00   14.0   177.4W   1006         15          
2020-01-21 06   14.2   176.8W   1008         15          
2020-01-21 12   14.3   174.3W   1009         15          
2020-01-21 18   14.3   174.0W   1007         15          
2020-01-22 00   14.3   173.6W   1006         15          
2020-01-22 06   14.3   173.3W   1006         15          
2020-01-22 12   14.3   173.0W   1008         15          
2020-01-22 18   14.0   172.5W   1007         15          
2020-01-23 00   13.9   171.5W   1004         15          
2020-01-23 06   14.0   170.9W   1004         15          
2020-01-23 12   14.1   170.5W   1004         15          
2020-01-23 18   14.2   170.0W   1005         15          
2020-01-24 00   14.4   169.7W   1003         15          
2020-01-24 06   14.7   169.5W   1002         25          
2020-01-24 12   15.2   169.3W   1000         30          
2020-01-24 18   16.2   169.2W   1001         30          
2020-01-25 00   17.4   169.2W   1002         30          
2020-01-25 06   18.9   168.8W   1002         30          
2020-01-25 12   20.3   168.1W   1003    1    35          
2020-01-25 18   21.1   167.4W   1000    1    35          
2020-01-26 00   21.8   166.8W   1000    1    35          
2020-01-26 06   22.0   166.7W   1002         30          
2020-01-26 12   22.2   166.5W   1003         25          
2020-01-26 18   22.4   166.2W   1002         25          
2020-01-27 00   22.5   166.0W   1002         25          
2020-01-27 06   22.5   165.9W   1004         25          
2020-01-27 12   22.6   165.9W   1006         20          
2020-01-27 18   22.9   166.0W   1006         20          
2020-01-28 00   23.1   166.2W   1007         20          
2020-01-28 06   23.3   166.5W   1006         20          
2020-01-28 12   23.8   167.3W   1008         20          
2020-01-28 18   24.3   168.6W   1008         20          
Winds are 10-min average.

Tropical cyclone tracks developed by Michael Bath using operational warnings and advisories and Google Maps.


[Australian Severe Weather index] [Copyright Notice] [Email Contacts] [Search This Site] [Privacy Policy]
Document: tropical_cyclone_202012.htm Updated: 11 March 2020